sensor_id;sensor_type;location;lat;lon;timestamp;pressure;altitude;pressure_sealevel;temperature
40199;BMP280;25906;43.536;26.068;2023-12-04T00:00:15;99506.47;;;1.90
40199;BMP280;25906;43.536;26.068;2023-12-04T00:03:00;99505.03;;;1.93
40199;BMP280;25906;43.536;26.068;2023-12-04T00:05:46;99517.91;;;2.02
40199;BMP280;25906;43.536;26.068;2023-12-04T00:08:32;99516.31;;;1.97
40199;BMP280;25906;43.536;26.068;2023-12-04T00:11:17;99518.34;;;1.88
40199;BMP280;25906;43.536;26.068;2023-12-04T00:14:03;99522.41;;;1.85
40199;BMP280;25906;43.536;26.068;2023-12-04T00:16:48;99521.63;;;1.85
40199;BMP280;25906;43.536;26.068;2023-12-04T00:19:34;99525.16;;;1.92
40199;BMP280;25906;43.536;26.068;2023-12-04T00:22:19;99524.06;;;1.93
40199;BMP280;25906;43.536;26.068;2023-12-04T00:25:06;99516.56;;;1.76
40199;BMP280;25906;43.536;26.068;2023-12-04T00:27:51;99542.16;;;1.86
40199;BMP280;25906;43.536;26.068;2023-12-04T00:30:37;99530.81;;;1.79
40199;BMP280;25906;43.536;26.068;2023-12-04T00:33:22;99522.03;;;1.87
40199;BMP280;25906;43.536;26.068;2023-12-04T00:36:09;99531.66;;;1.99
40199;BMP280;25906;43.536;26.068;2023-12-04T00:38:54;99534.94;;;1.95
40199;BMP280;25906;43.536;26.068;2023-12-04T00:41:40;99542.25;;;1.74
40199;BMP280;25906;43.536;26.068;2023-12-04T00:44:25;99546.19;;;1.68
40199;BMP280;25906;43.536;26.068;2023-12-04T00:47:11;99540.59;;;1.82
40199;BMP280;25906;43.536;26.068;2023-12-04T00:49:56;99537.38;;;1.73
40199;BMP280;25906;43.536;26.068;2023-12-04T00:52:42;99547.09;;;1.60
40199;BMP280;25906;43.536;26.068;2023-12-04T00:55:27;99545.78;;;1.66
40199;BMP280;25906;43.536;26.068;2023-12-04T00:58:13;99559.81;;;1.62
40199;BMP280;25906;43.536;26.068;2023-12-04T01:00:58;99561.50;;;1.70
40199;BMP280;25906;43.536;26.068;2023-12-04T01:03:46;99567.06;;;1.68
40199;BMP280;25906;43.536;26.068;2023-12-04T01:06:31;99568.91;;;1.68
40199;BMP280;25906;43.536;26.068;2023-12-04T01:09:17;99581.28;;;1.71
40199;BMP280;25906;43.536;26.068;2023-12-04T01:12:03;99575.13;;;1.63
40199;BMP280;25906;43.536;26.068;2023-12-04T01:14:48;99579.34;;;1.68
40199;BMP280;25906;43.536;26.068;2023-12-04T01:17:34;99576.25;;;1.78
40199;BMP280;25906;43.536;26.068;2023-12-04T01:20:20;99583.66;;;1.76
40199;BMP280;25906;43.536;26.068;2023-12-04T01:23:05;99584.00;;;1.74
40199;BMP280;25906;43.536;26.068;2023-12-04T01:25:51;99580.28;;;1.60
40199;BMP280;25906;43.536;26.068;2023-12-04T01:28:36;99579.22;;;1.48
40199;BMP280;25906;43.536;26.068;2023-12-04T01:31:21;99580.63;;;1.46
40199;BMP280;25906;43.536;26.068;2023-12-04T01:34:07;99569.56;;;1.49
40199;BMP280;25906;43.536;26.068;2023-12-04T01:36:52;99582.81;;;1.72
40199;BMP280;25906;43.536;26.068;2023-12-04T01:39:38;99578.84;;;1.62
40199;BMP280;25906;43.536;26.068;2023-12-04T01:42:23;99590.97;;;1.70
40199;BMP280;25906;43.536;26.068;2023-12-04T01:45:09;99587.94;;;1.68
40199;BMP280;25906;43.536;26.068;2023-12-04T01:47:54;99586.66;;;1.62
40199;BMP280;25906;43.536;26.068;2023-12-04T01:50:40;99584.25;;;1.69
40199;BMP280;25906;43.536;26.068;2023-12-04T01:53:26;99575.66;;;1.69
40199;BMP280;25906;43.536;26.068;2023-12-04T01:56:11;99581.41;;;1.46
40199;BMP280;25906;43.536;26.068;2023-12-04T01:58:57;99585.28;;;1.52
40199;BMP280;25906;43.536;26.068;2023-12-04T02:01:42;99577.59;;;1.44
40199;BMP280;25906;43.536;26.068;2023-12-04T02:04:28;99585.19;;;1.49
40199;BMP280;25906;43.536;26.068;2023-12-04T02:07:13;99589.72;;;1.52
40199;BMP280;25906;43.536;26.068;2023-12-04T02:09:59;99599.31;;;1.48
40199;BMP280;25906;43.536;26.068;2023-12-04T02:12:44;99607.66;;;1.53
40199;BMP280;25906;43.536;26.068;2023-12-04T02:15:30;99609.84;;;1.24
40199;BMP280;25906;43.536;26.068;2023-12-04T02:18:17;99614.09;;;1.44
40199;BMP280;25906;43.536;26.068;2023-12-04T02:21:03;99611.75;;;1.39
40199;BMP280;25906;43.536;26.068;2023-12-04T02:23:52;99609.38;;;1.34
40199;BMP280;25906;43.536;26.068;2023-12-04T02:26:52;99622.13;;;1.23
40199;BMP280;25906;43.536;26.068;2023-12-04T02:29:41;99629.63;;;1.52
40199;BMP280;25906;43.536;26.068;2023-12-04T02:32:33;99618.03;;;1.50
40199;BMP280;25906;43.536;26.068;2023-12-04T02:35:23;99626.72;;;1.42
40199;BMP280;25906;43.536;26.068;2023-12-04T02:38:10;99631.81;;;1.50
40199;BMP280;25906;43.536;26.068;2023-12-04T02:40:56;99619.09;;;1.49
40199;BMP280;25906;43.536;26.068;2023-12-04T02:43:42;99637.56;;;1.44
40199;BMP280;25906;43.536;26.068;2023-12-04T02:46:27;99634.72;;;1.61
40199;BMP280;25906;43.536;26.068;2023-12-04T02:49:12;99639.97;;;1.49
40199;BMP280;25906;43.536;26.068;2023-12-04T02:51:58;99644.88;;;1.38
40199;BMP280;25906;43.536;26.068;2023-12-04T02:54:43;99638.13;;;1.49
40199;BMP280;25906;43.536;26.068;2023-12-04T02:57:29;99632.84;;;1.34
40199;BMP280;25906;43.536;26.068;2023-12-04T03:00:15;99638.06;;;1.34
40199;BMP280;25906;43.536;26.068;2023-12-04T03:03:00;99634.50;;;1.26
40199;BMP280;25906;43.536;26.068;2023-12-04T03:05:46;99634.84;;;1.25
40199;BMP280;25906;43.536;26.068;2023-12-04T03:08:31;99640.66;;;1.34
40199;BMP280;25906;43.536;26.068;2023-12-04T03:11:17;99645.63;;;1.39
40199;BMP280;25906;43.536;26.068;2023-12-04T03:14:02;99662.06;;;1.39
40199;BMP280;25906;43.536;26.068;2023-12-04T03:16:49;99666.34;;;1.32
40199;BMP280;25906;43.536;26.068;2023-12-04T03:19:34;99675.41;;;1.38
40199;BMP280;25906;43.536;26.068;2023-12-04T03:22:20;99669.94;;;1.55
40199;BMP280;25906;43.536;26.068;2023-12-04T03:25:06;99672.38;;;1.36
40199;BMP280;25906;43.536;26.068;2023-12-04T03:27:51;99671.03;;;1.26
40199;BMP280;25906;43.536;26.068;2023-12-04T03:30:37;99664.81;;;1.31
40199;BMP280;25906;43.536;26.068;2023-12-04T03:33:22;99671.97;;;1.34
40199;BMP280;25906;43.536;26.068;2023-12-04T03:36:08;99680.69;;;1.26
40199;BMP280;25906;43.536;26.068;2023-12-04T03:38:53;99680.75;;;1.41
40199;BMP280;25906;43.536;26.068;2023-12-04T03:41:39;99679.53;;;1.39
40199;BMP280;25906;43.536;26.068;2023-12-04T03:44:25;99671.03;;;1.26
40199;BMP280;25906;43.536;26.068;2023-12-04T03:47:10;99682.09;;;1.23
40199;BMP280;25906;43.536;26.068;2023-12-04T03:49:56;99686.34;;;1.28
40199;BMP280;25906;43.536;26.068;2023-12-04T03:52:42;99692.91;;;1.37
40199;BMP280;25906;43.536;26.068;2023-12-04T03:55:27;99692.81;;;1.34
40199;BMP280;25906;43.536;26.068;2023-12-04T03:58:13;99683.84;;;1.19
40199;BMP280;25906;43.536;26.068;2023-12-04T04:00:58;99689.78;;;1.32
40199;BMP280;25906;43.536;26.068;2023-12-04T04:03:44;99693.66;;;1.38
40199;BMP280;25906;43.536;26.068;2023-12-04T04:06:31;99695.03;;;1.20
40199;BMP280;25906;43.536;26.068;2023-12-04T04:09:16;99695.25;;;1.27
40199;BMP280;25906;43.536;26.068;2023-12-04T04:12:02;99696.94;;;1.35
40199;BMP280;25906;43.536;26.068;2023-12-04T04:14:47;99709.63;;;1.36
40199;BMP280;25906;43.536;26.068;2023-12-04T04:17:33;99713.75;;;1.37
40199;BMP280;25906;43.536;26.068;2023-12-04T04:20:19;99711.31;;;1.29
40199;BMP280;25906;43.536;26.068;2023-12-04T04:23:05;99723.44;;;1.49
40199;BMP280;25906;43.536;26.068;2023-12-04T04:25:50;99719.75;;;1.38
40199;BMP280;25906;43.536;26.068;2023-12-04T04:28:36;99713.69;;;1.34
40199;BMP280;25906;43.536;26.068;2023-12-04T04:31:21;99704.34;;;1.21
40199;BMP280;25906;43.536;26.068;2023-12-04T04:34:07;99712.63;;;1.23
40199;BMP280;25906;43.536;26.068;2023-12-04T04:36:52;99699.78;;;1.30
40199;BMP280;25906;43.536;26.068;2023-12-04T04:39:39;99710.34;;;1.21
40199;BMP280;25906;43.536;26.068;2023-12-04T04:42:25;99704.59;;;1.28
40199;BMP280;25906;43.536;26.068;2023-12-04T04:45:10;99714.56;;;1.26
40199;BMP280;25906;43.536;26.068;2023-12-04T04:47:56;99718.59;;;1.23
40199;BMP280;25906;43.536;26.068;2023-12-04T04:50:41;99723.72;;;1.20
40199;BMP280;25906;43.536;26.068;2023-12-04T04:53:27;99721.31;;;1.14
40199;BMP280;25906;43.536;26.068;2023-12-04T04:56:12;99734.50;;;1.46
40199;BMP280;25906;43.536;26.068;2023-12-04T04:58:58;99728.66;;;1.49
40199;BMP280;25906;43.536;26.068;2023-12-04T05:01:43;99725.28;;;1.36
40199;BMP280;25906;43.536;26.068;2023-12-04T05:04:29;99730.41;;;1.21
40199;BMP280;25906;43.536;26.068;2023-12-04T05:07:14;99736.72;;;1.32
40199;BMP280;25906;43.536;26.068;2023-12-04T05:10:00;99745.88;;;1.26
40199;BMP280;25906;43.536;26.068;2023-12-04T05:12:45;99742.81;;;1.24
40199;BMP280;25906;43.536;26.068;2023-12-04T05:15:30;99745.53;;;1.27
40199;BMP280;25906;43.536;26.068;2023-12-04T05:18:16;99756.06;;;1.31
40199;BMP280;25906;43.536;26.068;2023-12-04T05:21:01;99763.63;;;1.36
40199;BMP280;25906;43.536;26.068;2023-12-04T05:23:48;99768.66;;;1.29
40199;BMP280;25906;43.536;26.068;2023-12-04T05:26:33;99766.72;;;1.26
40199;BMP280;25906;43.536;26.068;2023-12-04T05:29:19;99764.31;;;1.21
40199;BMP280;25906;43.536;26.068;2023-12-04T05:32:04;99771.91;;;1.38
40199;BMP280;25906;43.536;26.068;2023-12-04T05:34:50;99763.00;;;1.39
40199;BMP280;25906;43.536;26.068;2023-12-04T05:37:35;99759.00;;;1.29
40199;BMP280;25906;43.536;26.068;2023-12-04T05:40:21;99763.00;;;1.39
40199;BMP280;25906;43.536;26.068;2023-12-04T05:43:06;99764.84;;;1.38
40199;BMP280;25906;43.536;26.068;2023-12-04T05:45:51;99758.22;;;1.29
40199;BMP280;25906;43.536;26.068;2023-12-04T05:48:37;99758.00;;;1.46
40199;BMP280;25906;43.536;26.068;2023-12-04T05:51:23;99770.72;;;1.47
40199;BMP280;25906;43.536;26.068;2023-12-04T05:54:08;99780.69;;;1.45
40199;BMP280;25906;43.536;26.068;2023-12-04T05:56:54;99775.94;;;1.47
40199;BMP280;25906;43.536;26.068;2023-12-04T05:59:39;99776.47;;;1.53
40199;BMP280;25906;43.536;26.068;2023-12-04T06:02:25;99779.28;;;1.36
40199;BMP280;25906;43.536;26.068;2023-12-04T06:05:10;99779.16;;;1.44
40199;BMP280;25906;43.536;26.068;2023-12-04T06:07:56;99784.06;;;1.46
40199;BMP280;25906;43.536;26.068;2023-12-04T06:10:43;99789.72;;;1.36
40199;BMP280;25906;43.536;26.068;2023-12-04T06:13:28;99783.31;;;1.21
40199;BMP280;25906;43.536;26.068;2023-12-04T06:16:14;99794.41;;;1.30
40199;BMP280;25906;43.536;26.068;2023-12-04T06:18:59;99802.34;;;1.34
40199;BMP280;25906;43.536;26.068;2023-12-04T06:21:45;99813.09;;;1.20
40199;BMP280;25906;43.536;26.068;2023-12-04T06:24:30;99812.00;;;1.21
40199;BMP280;25906;43.536;26.068;2023-12-04T06:27:18;99809.16;;;1.02
40199;BMP280;25906;43.536;26.068;2023-12-04T06:30:07;99813.31;;;1.03
40199;BMP280;25906;43.536;26.068;2023-12-04T06:32:53;99805.50;;;1.15
40199;BMP280;25906;43.536;26.068;2023-12-04T06:35:39;99807.88;;;1.20
40199;BMP280;25906;43.536;26.068;2023-12-04T06:38:24;99804.50;;;0.95
40199;BMP280;25906;43.536;26.068;2023-12-04T06:41:11;99810.47;;;0.96
40199;BMP280;25906;43.536;26.068;2023-12-04T06:43:56;99822.19;;;1.02
40199;BMP280;25906;43.536;26.068;2023-12-04T06:46:46;99817.53;;;0.95
40199;BMP280;25906;43.536;26.068;2023-12-04T06:49:33;99826.41;;;0.94
40199;BMP280;25906;43.536;26.068;2023-12-04T06:52:19;99822.84;;;0.99
40199;BMP280;25906;43.536;26.068;2023-12-04T06:55:05;99829.72;;;1.03
40199;BMP280;25906;43.536;26.068;2023-12-04T06:57:50;99822.13;;;1.10
40199;BMP280;25906;43.536;26.068;2023-12-04T07:00:36;99824.38;;;1.12
40199;BMP280;25906;43.536;26.068;2023-12-04T07:03:21;99824.00;;;0.89
40199;BMP280;25906;43.536;26.068;2023-12-04T07:06:07;99827.28;;;0.98
40199;BMP280;25906;43.536;26.068;2023-12-04T07:08:52;99835.09;;;0.98
40199;BMP280;25906;43.536;26.068;2023-12-04T07:11:38;99830.25;;;1.09
40199;BMP280;25906;43.536;26.068;2023-12-04T07:14:26;99834.25;;;0.94
40199;BMP280;25906;43.536;26.068;2023-12-04T07:17:11;99843.31;;;0.88
40199;BMP280;25906;43.536;26.068;2023-12-04T07:19:57;99845.13;;;1.08
40199;BMP280;25906;43.536;26.068;2023-12-04T07:22:42;99850.78;;;1.10
40199;BMP280;25906;43.536;26.068;2023-12-04T07:25:28;99853.22;;;1.28
40199;BMP280;25906;43.536;26.068;2023-12-04T07:28:13;99855.06;;;1.27
40199;BMP280;25906;43.536;26.068;2023-12-04T07:30:59;99861.00;;;1.40
40199;BMP280;25906;43.536;26.068;2023-12-04T07:33:46;99862.97;;;1.31
40199;BMP280;25906;43.536;26.068;2023-12-04T07:36:32;99862.63;;;1.44
40199;BMP280;25906;43.536;26.068;2023-12-04T07:39:17;99867.31;;;1.39
40199;BMP280;25906;43.536;26.068;2023-12-04T07:42:03;99872.09;;;1.37
40199;BMP280;25906;43.536;26.068;2023-12-04T07:44:48;99870.56;;;1.36
40199;BMP280;25906;43.536;26.068;2023-12-04T07:47:34;99859.53;;;1.51
40199;BMP280;25906;43.536;26.068;2023-12-04T07:50:19;99853.41;;;1.35
40199;BMP280;25906;43.536;26.068;2023-12-04T07:53:05;99863.09;;;1.46
40199;BMP280;25906;43.536;26.068;2023-12-04T07:55:50;99864.72;;;1.51
40199;BMP280;25906;43.536;26.068;2023-12-04T07:58:36;99857.88;;;1.34
40199;BMP280;25906;43.536;26.068;2023-12-04T08:01:23;99867.66;;;1.49
40199;BMP280;25906;43.536;26.068;2023-12-04T08:04:09;99861.78;;;1.52
40199;BMP280;25906;43.536;26.068;2023-12-04T08:06:54;99867.66;;;1.62
40199;BMP280;25906;43.536;26.068;2023-12-04T08:09:40;99868.97;;;1.68
40199;BMP280;25906;43.536;26.068;2023-12-04T08:12:26;99869.41;;;1.58
40199;BMP280;25906;43.536;26.068;2023-12-04T08:15:12;99871.03;;;1.74
40199;BMP280;25906;43.536;26.068;2023-12-04T08:17:57;99876.16;;;1.59
40199;BMP280;25906;43.536;26.068;2023-12-04T08:20:43;99875.38;;;1.58
40199;BMP280;25906;43.536;26.068;2023-12-04T08:23:28;99880.50;;;1.67
40199;BMP280;25906;43.536;26.068;2023-12-04T08:26:21;99872.88;;;1.86
40199;BMP280;25906;43.536;26.068;2023-12-04T08:29:06;99865.38;;;1.72
40199;BMP280;25906;43.536;26.068;2023-12-04T08:31:52;99864.28;;;1.85
40199;BMP280;25906;43.536;26.068;2023-12-04T08:34:38;99874.25;;;1.95
40199;BMP280;25906;43.536;26.068;2023-12-04T08:37:23;99876.75;;;1.92
40199;BMP280;25906;43.536;26.068;2023-12-04T08:40:09;99876.19;;;2.11
40199;BMP280;25906;43.536;26.068;2023-12-04T08:42:55;99872.31;;;2.05
40199;BMP280;25906;43.536;26.068;2023-12-04T08:45:40;99871.63;;;2.08
40199;BMP280;25906;43.536;26.068;2023-12-04T08:48:26;99866.84;;;2.22
40199;BMP280;25906;43.536;26.068;2023-12-04T08:51:15;99867.84;;;2.33
40199;BMP280;25906;43.536;26.068;2023-12-04T08:54:02;99866.44;;;2.35
40199;BMP280;25906;43.536;26.068;2023-12-04T08:56:48;99868.50;;;2.42
40199;BMP280;25906;43.536;26.068;2023-12-04T08:59:34;99859.63;;;2.31
40199;BMP280;25906;43.536;26.068;2023-12-04T09:02:20;99866.75;;;2.46
40199;BMP280;25906;43.536;26.068;2023-12-04T09:05:06;99862.47;;;2.54
40199;BMP280;25906;43.536;26.068;2023-12-04T09:07:51;99858.34;;;2.53
40199;BMP280;25906;43.536;26.068;2023-12-04T09:10:37;99857.31;;;2.29
40199;BMP280;25906;43.536;26.068;2023-12-04T09:13:22;99846.72;;;2.22
40199;BMP280;25906;43.536;26.068;2023-12-04T09:16:08;99845.13;;;2.33
40199;BMP280;25906;43.536;26.068;2023-12-04T09:18:53;99845.94;;;2.50
40199;BMP280;25906;43.536;26.068;2023-12-04T09:21:39;99844.19;;;2.54
40199;BMP280;25906;43.536;26.068;2023-12-04T09:24:24;99839.38;;;2.71
40199;BMP280;25906;43.536;26.068;2023-12-04T09:27:10;99835.47;;;2.50
40199;BMP280;25906;43.536;26.068;2023-12-04T09:29:55;99830.25;;;2.78
40199;BMP280;25906;43.536;26.068;2023-12-04T09:32:41;99835.03;;;2.75
40199;BMP280;25906;43.536;26.068;2023-12-04T09:35:26;99828.72;;;2.76
40199;BMP280;25906;43.536;26.068;2023-12-04T09:38:12;99817.25;;;2.81
40199;BMP280;25906;43.536;26.068;2023-12-04T09:40:59;99818.00;;;2.97
40199;BMP280;25906;43.536;26.068;2023-12-04T09:43:47;99808.16;;;2.91
40199;BMP280;25906;43.536;26.068;2023-12-04T09:46:34;99800.22;;;3.03
40199;BMP280;25906;43.536;26.068;2023-12-04T09:49:19;99798.47;;;2.91
40199;BMP280;25906;43.536;26.068;2023-12-04T09:52:05;99796.66;;;2.80
40199;BMP280;25906;43.536;26.068;2023-12-04T09:54:52;99797.69;;;2.91
40199;BMP280;25906;43.536;26.068;2023-12-04T09:57:37;99793.28;;;3.26
40199;BMP280;25906;43.536;26.068;2023-12-04T10:00:23;99792.56;;;3.10
40199;BMP280;25906;43.536;26.068;2023-12-04T10:03:08;99783.84;;;3.06
40199;BMP280;25906;43.536;26.068;2023-12-04T10:05:54;99778.88;;;3.01
40199;BMP280;25906;43.536;26.068;2023-12-04T10:08:40;99786.94;;;2.96
40199;BMP280;25906;43.536;26.068;2023-12-04T10:11:25;99784.69;;;3.10
40199;BMP280;25906;43.536;26.068;2023-12-04T10:14:15;99782.69;;;3.19
40199;BMP280;25906;43.536;26.068;2023-12-04T10:17:14;99772.97;;;3.04
40199;BMP280;25906;43.536;26.068;2023-12-04T10:20:08;99776.81;;;3.41
40199;BMP280;25906;43.536;26.068;2023-12-04T10:22:59;99788.59;;;3.35
40199;BMP280;25906;43.536;26.068;2023-12-04T10:25:44;99779.16;;;3.31
40199;BMP280;25906;43.536;26.068;2023-12-04T10:28:30;99772.78;;;3.12
40199;BMP280;25906;43.536;26.068;2023-12-04T10:31:17;99770.84;;;3.25
40199;BMP280;25906;43.536;26.068;2023-12-04T10:34:02;99772.25;;;3.38
40199;BMP280;25906;43.536;26.068;2023-12-04T10:36:49;99774.53;;;3.59
40199;BMP280;25906;43.536;26.068;2023-12-04T10:39:50;99780.25;;;3.45
40199;BMP280;25906;43.536;26.068;2023-12-04T10:42:36;99776.91;;;3.64
40199;BMP280;25906;43.536;26.068;2023-12-04T10:45:22;99777.97;;;3.44
40199;BMP280;25906;43.536;26.068;2023-12-04T10:48:08;99772.66;;;3.40
40199;BMP280;25906;43.536;26.068;2023-12-04T10:50:53;99778.50;;;3.69
40199;BMP280;25906;43.536;26.068;2023-12-04T10:53:39;99778.19;;;3.54
40199;BMP280;25906;43.536;26.068;2023-12-04T10:56:36;99767.88;;;3.62
40199;BMP280;25906;43.536;26.068;2023-12-04T10:59:27;99778.28;;;3.58
40199;BMP280;25906;43.536;26.068;2023-12-04T11:02:18;99777.94;;;3.79
40199;BMP280;25906;43.536;26.068;2023-12-04T11:05:13;99782.84;;;3.80
40199;BMP280;25906;43.536;26.068;2023-12-04T11:08:02;99774.22;;;3.80
40199;BMP280;25906;43.536;26.068;2023-12-04T11:13:42;99775.41;;;3.82
40199;BMP280;25906;43.536;26.068;2023-12-04T11:16:51;99771.31;;;4.04
40199;BMP280;25906;43.536;26.068;2023-12-04T11:19:49;99776.22;;;4.06
40199;BMP280;25906;43.536;26.068;2023-12-04T11:22:38;99782.97;;;3.87
40199;BMP280;25906;43.536;26.068;2023-12-04T11:25:28;99774.22;;;3.80
40199;BMP280;25906;43.536;26.068;2023-12-04T11:28:15;99776.38;;;3.93
40199;BMP280;25906;43.536;26.068;2023-12-04T11:31:01;99768.97;;;3.99
40199;BMP280;25906;43.536;26.068;2023-12-04T11:33:47;99768.44;;;3.90
40199;BMP280;25906;43.536;26.068;2023-12-04T11:36:33;99762.63;;;4.00
40199;BMP280;25906;43.536;26.068;2023-12-04T11:39:19;99760.22;;;3.91
40199;BMP280;25906;43.536;26.068;2023-12-04T11:42:07;99766.66;;;3.94
40199;BMP280;25906;43.536;26.068;2023-12-04T11:44:57;99765.59;;;3.79
40199;BMP280;25906;43.536;26.068;2023-12-04T11:47:54;99762.63;;;4.00
40199;BMP280;25906;43.536;26.068;2023-12-04T11:50:40;99772.16;;;3.89
40199;BMP280;25906;43.536;26.068;2023-12-04T11:53:27;99759.03;;;4.08
40199;BMP280;25906;43.536;26.068;2023-12-04T11:56:13;99757.38;;;4.19
40199;BMP280;25906;43.536;26.068;2023-12-04T11:59:06;99756.94;;;4.17
40199;BMP280;25906;43.536;26.068;2023-12-04T12:01:55;99758.28;;;4.08
40199;BMP280;25906;43.536;26.068;2023-12-04T12:04:42;99760.84;;;4.04
40199;BMP280;25906;43.536;26.068;2023-12-04T12:07:28;99754.97;;;4.11
40199;BMP280;25906;43.536;26.068;2023-12-04T12:10:13;99758.09;;;3.97
40199;BMP280;25906;43.536;26.068;2023-12-04T12:12:59;99744.56;;;3.95
40199;BMP280;25906;43.536;26.068;2023-12-04T12:15:46;99745.38;;;4.18
40199;BMP280;25906;43.536;26.068;2023-12-04T12:18:34;99747.88;;;4.11
40199;BMP280;25906;43.536;26.068;2023-12-04T12:21:20;99735.22;;;4.13
40199;BMP280;25906;43.536;26.068;2023-12-04T12:24:06;99749.44;;;4.16
40199;BMP280;25906;43.536;26.068;2023-12-04T12:26:53;99748.06;;;4.22
40199;BMP280;25906;43.536;26.068;2023-12-04T12:29:39;99743.16;;;4.20
40199;BMP280;25906;43.536;26.068;2023-12-04T12:32:26;99739.94;;;4.08
40199;BMP280;25906;43.536;26.068;2023-12-04T12:35:12;99737.94;;;4.01
40199;BMP280;25906;43.536;26.068;2023-12-04T12:37:58;99742.13;;;4.25
40199;BMP280;25906;43.536;26.068;2023-12-04T12:40:43;99737.50;;;4.18
40199;BMP280;25906;43.536;26.068;2023-12-04T12:43:29;99747.56;;;4.16
40199;BMP280;25906;43.536;26.068;2023-12-04T12:46:15;99736.22;;;4.09
40199;BMP280;25906;43.536;26.068;2023-12-04T12:49:02;99736.13;;;4.47
40199;BMP280;25906;43.536;26.068;2023-12-04T12:51:50;99734.75;;;4.30
40199;BMP280;25906;43.536;26.068;2023-12-04T12:54:39;99736.06;;;4.21
40199;BMP280;25906;43.536;26.068;2023-12-04T12:57:25;99731.66;;;4.48
40199;BMP280;25906;43.536;26.068;2023-12-04T13:00:12;99735.41;;;4.05
40199;BMP280;25906;43.536;26.068;2023-12-04T13:02:58;99745.75;;;3.97
40199;BMP280;25906;43.536;26.068;2023-12-04T13:05:44;99733.47;;;4.02
40199;BMP280;25906;43.536;26.068;2023-12-04T13:08:29;99735.75;;;4.03
40199;BMP280;25906;43.536;26.068;2023-12-04T13:11:15;99735.75;;;4.03
40199;BMP280;25906;43.536;26.068;2023-12-04T13:14:01;99733.72;;;4.16
40199;BMP280;25906;43.536;26.068;2023-12-04T13:16:47;99735.56;;;4.12
40199;BMP280;25906;43.536;26.068;2023-12-04T13:19:32;99739.78;;;4.20
40199;BMP280;25906;43.536;26.068;2023-12-04T13:22:19;99733.84;;;3.81
40199;BMP280;25906;43.536;26.068;2023-12-04T13:25:06;99743.84;;;4.14
40199;BMP280;25906;43.536;26.068;2023-12-04T13:27:55;99743.81;;;4.36
40199;BMP280;25906;43.536;26.068;2023-12-04T13:30:40;99742.44;;;4.43
40199;BMP280;25906;43.536;26.068;2023-12-04T13:33:26;99744.09;;;4.09
40199;BMP280;25906;43.536;26.068;2023-12-04T13:36:12;99750.44;;;4.08
40199;BMP280;25906;43.536;26.068;2023-12-04T13:38:58;99755.59;;;4.04
40199;BMP280;25906;43.536;26.068;2023-12-04T13:41:45;99753.69;;;4.24
40199;BMP280;25906;43.536;26.068;2023-12-04T13:44:49;99755.59;;;4.04
40199;BMP280;25906;43.536;26.068;2023-12-04T13:47:36;99754.06;;;4.22
40199;BMP280;25906;43.536;26.068;2023-12-04T13:50:23;99763.53;;;4.08
40199;BMP280;25906;43.536;26.068;2023-12-04T14:05:21;99761.00;;;3.92
40199;BMP280;25906;43.536;26.068;2023-12-04T14:08:06;99764.84;;;3.79
40199;BMP280;25906;43.536;26.068;2023-12-04T14:10:52;99768.72;;;3.66
40199;BMP280;25906;43.536;26.068;2023-12-04T14:13:37;99766.66;;;3.75
40199;BMP280;25906;43.536;26.068;2023-12-04T14:16:26;99770.81;;;3.60
40199;BMP280;25906;43.536;26.068;2023-12-04T14:19:11;99770.47;;;3.62
40199;BMP280;25906;43.536;26.068;2023-12-04T14:21:58;99760.53;;;3.32
40199;BMP280;25906;43.536;26.068;2023-12-04T14:24:43;99769.56;;;3.35
40199;BMP280;25906;43.536;26.068;2023-12-04T14:27:29;99779.78;;;3.24
40199;BMP280;25906;43.536;26.068;2023-12-04T14:30:14;99777.94;;;3.09
40199;BMP280;25906;43.536;26.068;2023-12-04T14:33:00;99774.44;;;2.86
40199;BMP280;25906;43.536;26.068;2023-12-04T14:35:45;99777.94;;;3.09
40199;BMP280;25906;43.536;26.068;2023-12-04T14:38:32;99778.44;;;3.14
40199;BMP280;25906;43.536;26.068;2023-12-04T14:41:17;99776.25;;;3.01
40199;BMP280;25906;43.536;26.068;2023-12-04T14:44:03;99783.44;;;2.88
40199;BMP280;25906;43.536;26.068;2023-12-04T14:46:48;99780.81;;;2.72
40199;BMP280;25906;43.536;26.068;2023-12-04T14:49:34;99783.56;;;2.64
40199;BMP280;25906;43.536;26.068;2023-12-04T14:52:20;99789.06;;;2.59
40199;BMP280;25906;43.536;26.068;2023-12-04T14:55:07;99784.94;;;2.58
40199;BMP280;25906;43.536;26.068;2023-12-04T14:58:15;99791.69;;;2.59
40199;BMP280;25906;43.536;26.068;2023-12-04T15:01:19;99791.66;;;2.43
40199;BMP280;25906;43.536;26.068;2023-12-04T15:04:17;99795.47;;;2.33
40199;BMP280;25906;43.536;26.068;2023-12-04T15:07:08;99793.72;;;2.22
40199;BMP280;25906;43.536;26.068;2023-12-04T15:10:13;99799.41;;;2.12
40199;BMP280;25906;43.536;26.068;2023-12-04T15:13:27;99799.88;;;1.89
40199;BMP280;25906;43.536;26.068;2023-12-04T15:16:31;99797.50;;;1.84
40199;BMP280;25906;43.536;26.068;2023-12-04T15:19:37;99808.31;;;1.71
40199;BMP280;25906;43.536;26.068;2023-12-04T15:22:33;99807.44;;;1.79
40199;BMP280;25906;43.536;26.068;2023-12-04T15:25:18;99810.16;;;1.70
40199;BMP280;25906;43.536;26.068;2023-12-04T15:28:05;99807.75;;;1.53
40199;BMP280;25906;43.536;26.068;2023-12-04T15:30:52;99809.19;;;1.50
40199;BMP280;25906;43.536;26.068;2023-12-04T15:33:38;99813.97;;;1.48
40199;BMP280;25906;43.536;26.068;2023-12-04T15:36:23;99804.06;;;1.42
40199;BMP280;25906;43.536;26.068;2023-12-04T15:39:09;99806.25;;;1.40
40199;BMP280;25906;43.536;26.068;2023-12-04T15:41:54;99807.22;;;1.35
40199;BMP280;25906;43.536;26.068;2023-12-04T15:44:40;99805.16;;;1.29
40199;BMP280;25906;43.536;26.068;2023-12-04T15:47:25;99811.34;;;1.36
40199;BMP280;25906;43.536;26.068;2023-12-04T15:50:11;99812.34;;;1.32
40199;BMP280;25906;43.536;26.068;2023-12-04T15:52:57;99813.22;;;1.24
40199;BMP280;25906;43.536;26.068;2023-12-04T15:55:43;99805.94;;;1.29
40199;BMP280;25906;43.536;26.068;2023-12-04T15:58:28;99811.25;;;1.08
40199;BMP280;25906;43.536;26.068;2023-12-04T16:01:14;99824.59;;;1.07
40199;BMP280;25906;43.536;26.068;2023-12-04T16:03:59;99817.25;;;0.88
40199;BMP280;25906;43.536;26.068;2023-12-04T16:06:45;99819.69;;;0.93
40199;BMP280;25906;43.536;26.068;2023-12-04T16:09:30;99815.34;;;0.97
40199;BMP280;25906;43.536;26.068;2023-12-04T16:12:16;99811.66;;;0.98
40199;BMP280;25906;43.536;26.068;2023-12-04T16:15:03;99806.75;;;0.97